KBIL/BIL METAR and TAF weather

Enter ICAO airport designator
Station Type Date Time Source
KBIL METAR 2019/06/16 05:53 UTC NOAA

KBIL 160553Z 15005KT 6SM RA BKN047 OVC070 16/12 A3003 RMK AO2 PK WND 31031/0518 WSHFT 0510 RAB11 PRESFR SLP144 FROPA P0015 60017 T01560122 10256 20150 53014 $


Station Type Date Time Source
KBIL Decoded METAR 2019/06/16 05:53 UTC NOAA

LOGAN INTERNATIONAL AIRPORT, MT, United States (KBIL) 45-49N 108-33W 1091M
Jun 16, 2019 - 01:53 AM EDT / 2019.06.16 0553 UTC
Wind: from the SSE (150 degrees) at 6 MPH (5 KT):0
Visibility: 6 mile(s):0
Sky conditions: overcast
Weather: rain
Precipitation last hour: 0.15 inches
Temperature: 60.1 F (15.6 C)
Dew Point: 54.0 F (12.2 C)
Relative Humidity: 80%
Pressure (altimeter): 30.03 in. Hg (1016 hPa)
Pressure tendency: falling rapidly - 0.04 inches (1.4 hPa) higher than three hours ago
ob: KBIL 160553Z 15005KT 6SM RA BKN047 OVC070 16/12 A3003 RMK AO2 PK WND 31031/0518 WSHFT 0510 RAB11 PRESFR SLP144 FROPA P0015 60017 T01560122 10256 20150 53014
cycle: 6

Station Type Date Time Source
KBIL TAF 2019/06/16 06:36 UTC NOAA

TAF KBIL 160534Z 1606/1706 VRB06KT P6SM VCSH FEW045 SCT070 BKN150
FM161530 04007KT P6SM VCSH SCT050 BKN100

Example: see airport list